EGGW/LTN METAR and TAF weather

Enter ICAO airport designator
Station Type Date Time Source
EGGW METAR 2018/09/21 23:20 UTC NOAA

EGGW 212320Z AUTO 24011KT 9999 NCD 11/07 Q1017


Station Type Date Time Source
EGGW Decoded METAR 2018/09/21 23:20 UTC NOAA

Luton Airport , United Kingdom (EGGW) 51-52N 000-22W
Sep 21, 2018 - 07:20 PM EDT / 2018.09.21 2320 UTC
Wind: from the WSW (240 degrees) at 13 MPH (11 KT):0
Visibility: greater than 7 mile(s):0
Temperature: 51 F (11 C)
Dew Point: 44 F (7 C)
Relative Humidity: 76%
Pressure (altimeter): 30.03 in. Hg (1017 hPa)
ob: EGGW 212320Z AUTO 24011KT 9999 NCD 11/07 Q1017
cycle: 23

Station Type Date Time Source
EGGW TAF 2018/09/21 18:15 UTC NOAA

TAF EGGW 211710Z 2118/2218 26020G30KT 9999 SCT035
BECMG 2118/2121 25012KT
TEMPO 2213/2218 8000 RA
BECMG 2215/2218 VRB04KT PROB30
TEMPO 2215/2218 4000 -RADZ BKN004


Example: see airport list